Terminal Aerodrome Forecast
Issued by NWS Albany, NY

Home | Current Version | Previous Version | Text Only | Print | Product List | Glossary On
Versions: 1 2 3 4 5 6 7 8 9 10 11 12 13 14 15 16 17 18 19 20 21 22 23 24 25 26 27 28 29 30 31 32 33
830
FTUS41 KALY 240604 AAB
TAFALB
TAF AMD
KALB 240604Z 2406/2506 17009KT P6SM BKN006 OVC020 WS020/26035KT
      TEMPO 2406/2408 -DZ SCT006 OVC020
     FM240800 26007KT P6SM BKN015 OVC040 WS020/28035KT
     FM241100 28012G18KT P6SM BKN025 OVC070
     FM241400 30010G15KT P6SM SCT035 BKN200
     FM242200 33005KT P6SM BKN120 OVC250=

USA.gov is the U.S. government's official web portal to all federal, state and local government web resources and services.